sensor_id;sensor_type;location;lat;lon;timestamp;temperature;humidity
44863;DHT22;30597;49.628;10.850;2023-04-01T00:01:29;21.90;46.60
44863;DHT22;30597;49.628;10.850;2023-04-01T00:03:55;21.80;46.00
44863;DHT22;30597;49.628;10.850;2023-04-01T00:06:21;21.80;46.10
44863;DHT22;30597;49.628;10.850;2023-04-01T00:08:47;21.80;46.10
44863;DHT22;30597;49.628;10.850;2023-04-01T00:11:13;21.80;46.20
44863;DHT22;30597;49.628;10.850;2023-04-01T00:13:40;21.70;46.20
44863;DHT22;30597;49.628;10.850;2023-04-01T00:16:07;21.60;46.90
44863;DHT22;30597;49.628;10.850;2023-04-01T00:18:32;21.60;46.40
44863;DHT22;30597;49.628;10.850;2023-04-01T00:20:58;21.60;46.50
44863;DHT22;30597;49.628;10.850;2023-04-01T00:23:24;21.50;46.50
44863;DHT22;30597;49.628;10.850;2023-04-01T00:25:50;21.50;46.50
44863;DHT22;30597;49.628;10.850;2023-04-01T00:28:17;21.50;46.60
44863;DHT22;30597;49.628;10.850;2023-04-01T00:30:43;21.50;46.70
44863;DHT22;30597;49.628;10.850;2023-04-01T00:33:08;21.50;46.80
44863;DHT22;30597;49.628;10.850;2023-04-01T00:35:34;21.40;46.60
44863;DHT22;30597;49.628;10.850;2023-04-01T00:38:00;21.40;46.70
44863;DHT22;30597;49.628;10.850;2023-04-01T00:40:32;21.40;46.90
44863;DHT22;30597;49.628;10.850;2023-04-01T00:42:57;21.40;46.90
44863;DHT22;30597;49.628;10.850;2023-04-01T00:47:51;21.40;47.10
44863;DHT22;30597;49.628;10.850;2023-04-01T00:50:19;21.40;47.10
44863;DHT22;30597;49.628;10.850;2023-04-01T00:52:45;21.30;47.10
44863;DHT22;30597;49.628;10.850;2023-04-01T00:55:13;21.30;47.00
44863;DHT22;30597;49.628;10.850;2023-04-01T00:57:40;21.30;47.20
44863;DHT22;30597;49.628;10.850;2023-04-01T01:00:11;21.30;47.10
44863;DHT22;30597;49.628;10.850;2023-04-01T01:02:41;21.30;47.20
44863;DHT22;30597;49.628;10.850;2023-04-01T01:05:08;21.30;47.20
44863;DHT22;30597;49.628;10.850;2023-04-01T01:10:34;21.20;47.30
44863;DHT22;30597;49.628;10.850;2023-04-01T01:15:41;21.20;47.50
44863;DHT22;30597;49.628;10.850;2023-04-01T01:21:23;21.20;47.50
44863;DHT22;30597;49.628;10.850;2023-04-01T01:24:22;21.10;47.50
44863;DHT22;30597;49.628;10.850;2023-04-01T01:27:07;21.10;47.50
44863;DHT22;30597;49.628;10.850;2023-04-01T01:33:09;21.10;47.60
44863;DHT22;30597;49.628;10.850;2023-04-01T01:35:58;21.10;47.60
44863;DHT22;30597;49.628;10.850;2023-04-01T01:38:29;21.10;47.70
44863;DHT22;30597;49.628;10.850;2023-04-01T01:40:57;21.10;47.70
44863;DHT22;30597;49.628;10.850;2023-04-01T01:43:30;21.10;47.70
44863;DHT22;30597;49.628;10.850;2023-04-01T01:46:01;21.10;47.70
44863;DHT22;30597;49.628;10.850;2023-04-01T01:48:29;21.10;47.70
44863;DHT22;30597;49.628;10.850;2023-04-01T01:50:55;21.10;47.70
44863;DHT22;30597;49.628;10.850;2023-04-01T01:53:21;21.10;47.70
44863;DHT22;30597;49.628;10.850;2023-04-01T01:55:48;21.10;47.80
44863;DHT22;30597;49.628;10.850;2023-04-01T01:58:25;21.00;47.80
44863;DHT22;30597;49.628;10.850;2023-04-01T02:00:59;21.00;47.80
44863;DHT22;30597;49.628;10.850;2023-04-01T02:03:27;21.00;47.90
44863;DHT22;30597;49.628;10.850;2023-04-01T02:05:56;20.90;47.90
44863;DHT22;30597;49.628;10.850;2023-04-01T02:08:37;20.90;47.90
44863;DHT22;30597;49.628;10.850;2023-04-01T02:11:09;20.90;48.00
44863;DHT22;30597;49.628;10.850;2023-04-01T02:16:16;21.00;48.10
44863;DHT22;30597;49.628;10.850;2023-04-01T02:18:48;21.00;48.20
44863;DHT22;30597;49.628;10.850;2023-04-01T02:21:15;21.00;48.10
44863;DHT22;30597;49.628;10.850;2023-04-01T02:23:42;21.00;48.10
44863;DHT22;30597;49.628;10.850;2023-04-01T02:26:09;20.90;47.80
44863;DHT22;30597;49.628;10.850;2023-04-01T02:28:38;20.90;47.80
44863;DHT22;30597;49.628;10.850;2023-04-01T02:31:04;20.90;48.00
44863;DHT22;30597;49.628;10.850;2023-04-01T02:33:31;20.90;48.00
44863;DHT22;30597;49.628;10.850;2023-04-01T02:35:58;20.90;48.00
44863;DHT22;30597;49.628;10.850;2023-04-01T02:38:24;20.90;48.10
44863;DHT22;30597;49.628;10.850;2023-04-01T02:40:57;20.90;48.10
44863;DHT22;30597;49.628;10.850;2023-04-01T02:43:23;20.90;48.20
44863;DHT22;30597;49.628;10.850;2023-04-01T02:45:49;20.80;48.10
44863;DHT22;30597;49.628;10.850;2023-04-01T02:48:15;20.90;48.20
44863;DHT22;30597;49.628;10.850;2023-04-01T02:50:40;20.90;48.30
44863;DHT22;30597;49.628;10.850;2023-04-01T02:53:06;20.80;48.30
44863;DHT22;30597;49.628;10.850;2023-04-01T02:55:32;20.80;48.30
44863;DHT22;30597;49.628;10.850;2023-04-01T02:57:58;20.80;48.40
44863;DHT22;30597;49.628;10.850;2023-04-01T03:00:25;20.70;48.30
44863;DHT22;30597;49.628;10.850;2023-04-01T03:02:51;20.80;48.40
44863;DHT22;30597;49.628;10.850;2023-04-01T03:05:16;20.70;48.40
44863;DHT22;30597;49.628;10.850;2023-04-01T03:07:42;20.70;48.40
44863;DHT22;30597;49.628;10.850;2023-04-01T03:10:08;20.80;48.50
44863;DHT22;30597;49.628;10.850;2023-04-01T03:12:33;20.70;48.50
44863;DHT22;30597;49.628;10.850;2023-04-01T03:14:59;20.80;48.70
44863;DHT22;30597;49.628;10.850;2023-04-01T03:17:24;20.70;48.50
44863;DHT22;30597;49.628;10.850;2023-04-01T03:19:50;20.60;48.40
44863;DHT22;30597;49.628;10.850;2023-04-01T03:22:15;20.60;48.50
44863;DHT22;30597;49.628;10.850;2023-04-01T03:24:41;20.70;48.60
44863;DHT22;30597;49.628;10.850;2023-04-01T03:27:07;20.60;48.60
44863;DHT22;30597;49.628;10.850;2023-04-01T03:29:32;20.60;48.60
44863;DHT22;30597;49.628;10.850;2023-04-01T03:31:58;20.60;48.70
44863;DHT22;30597;49.628;10.850;2023-04-01T03:34:24;20.60;48.70
44863;DHT22;30597;49.628;10.850;2023-04-01T03:36:51;20.60;48.70
44863;DHT22;30597;49.628;10.850;2023-04-01T03:39:16;20.70;48.80
44863;DHT22;30597;49.628;10.850;2023-04-01T03:41:44;20.60;48.70
44863;DHT22;30597;49.628;10.850;2023-04-01T03:44:10;20.60;48.80
44863;DHT22;30597;49.628;10.850;2023-04-01T03:46:36;20.60;48.70
44863;DHT22;30597;49.628;10.850;2023-04-01T03:49:02;20.60;48.80
44863;DHT22;30597;49.628;10.850;2023-04-01T03:51:27;20.60;48.70
44863;DHT22;30597;49.628;10.850;2023-04-01T03:53:53;20.60;48.70
44863;DHT22;30597;49.628;10.850;2023-04-01T03:56:19;20.50;48.70
44863;DHT22;30597;49.628;10.850;2023-04-01T03:58:44;20.50;48.80
44863;DHT22;30597;49.628;10.850;2023-04-01T04:01:18;20.50;48.80
44863;DHT22;30597;49.628;10.850;2023-04-01T04:03:43;20.50;48.90
44863;DHT22;30597;49.628;10.850;2023-04-01T04:06:14;20.50;48.90
44863;DHT22;30597;49.628;10.850;2023-04-01T04:08:39;20.50;49.00
44863;DHT22;30597;49.628;10.850;2023-04-01T04:11:05;20.40;48.90
44863;DHT22;30597;49.628;10.850;2023-04-01T04:13:31;20.50;49.00
44863;DHT22;30597;49.628;10.850;2023-04-01T04:15:56;20.50;49.10
44863;DHT22;30597;49.628;10.850;2023-04-01T04:18:23;20.50;49.10
44863;DHT22;30597;49.628;10.850;2023-04-01T04:20:48;20.50;49.10
44863;DHT22;30597;49.628;10.850;2023-04-01T04:23:16;20.50;49.10
44863;DHT22;30597;49.628;10.850;2023-04-01T04:25:56;20.60;49.20
44863;DHT22;30597;49.628;10.850;2023-04-01T04:28:22;20.60;49.10
44863;DHT22;30597;49.628;10.850;2023-04-01T04:30:48;20.60;49.00
44863;DHT22;30597;49.628;10.850;2023-04-01T04:33:13;20.50;49.00
44863;DHT22;30597;49.628;10.850;2023-04-01T04:35:39;20.50;49.10
44863;DHT22;30597;49.628;10.850;2023-04-01T04:38:04;20.60;49.20
44863;DHT22;30597;49.628;10.850;2023-04-01T04:40:30;20.50;49.20
44863;DHT22;30597;49.628;10.850;2023-04-01T04:42:55;20.50;49.20
44863;DHT22;30597;49.628;10.850;2023-04-01T04:45:21;20.50;49.20
44863;DHT22;30597;49.628;10.850;2023-04-01T04:47:47;20.50;49.20
44863;DHT22;30597;49.628;10.850;2023-04-01T04:50:12;20.50;49.20
44863;DHT22;30597;49.628;10.850;2023-04-01T04:52:38;20.50;49.20
44863;DHT22;30597;49.628;10.850;2023-04-01T04:55:04;20.40;49.20
44863;DHT22;30597;49.628;10.850;2023-04-01T04:57:30;20.40;49.20
44863;DHT22;30597;49.628;10.850;2023-04-01T04:59:55;20.40;49.30
44863;DHT22;30597;49.628;10.850;2023-04-01T05:02:21;20.40;49.30
44863;DHT22;30597;49.628;10.850;2023-04-01T05:04:46;20.40;49.40
44863;DHT22;30597;49.628;10.850;2023-04-01T05:07:12;20.50;49.50
44863;DHT22;30597;49.628;10.850;2023-04-01T05:09:37;20.50;49.40
44863;DHT22;30597;49.628;10.850;2023-04-01T05:12:03;20.50;49.40
44863;DHT22;30597;49.628;10.850;2023-04-01T05:14:29;20.50;49.30
44863;DHT22;30597;49.628;10.850;2023-04-01T05:16:54;20.50;49.20
44863;DHT22;30597;49.628;10.850;2023-04-01T05:19:20;20.60;49.40
44863;DHT22;30597;49.628;10.850;2023-04-01T05:21:46;20.60;49.40
44863;DHT22;30597;49.628;10.850;2023-04-01T05:24:12;20.60;49.20
44863;DHT22;30597;49.628;10.850;2023-04-01T05:26:37;20.60;49.20
44863;DHT22;30597;49.628;10.850;2023-04-01T05:29:04;20.70;49.10
44863;DHT22;30597;49.628;10.850;2023-04-01T05:31:29;20.70;49.20
44863;DHT22;30597;49.628;10.850;2023-04-01T05:33:55;20.70;49.10
44863;DHT22;30597;49.628;10.850;2023-04-01T05:36:21;20.80;49.00
44863;DHT22;30597;49.628;10.850;2023-04-01T05:38:47;20.90;48.90
44863;DHT22;30597;49.628;10.850;2023-04-01T05:41:14;20.90;48.90
44863;DHT22;30597;49.628;10.850;2023-04-01T05:43:40;20.90;48.80
44863;DHT22;30597;49.628;10.850;2023-04-01T05:46:06;20.90;48.90
44863;DHT22;30597;49.628;10.850;2023-04-01T05:48:35;20.90;48.70
44863;DHT22;30597;49.628;10.850;2023-04-01T05:51:02;21.00;48.70
44863;DHT22;30597;49.628;10.850;2023-04-01T05:53:27;21.10;49.30
44863;DHT22;30597;49.628;10.850;2023-04-01T05:55:53;21.00;48.80
44863;DHT22;30597;49.628;10.850;2023-04-01T05:58:18;21.00;48.60
44863;DHT22;30597;49.628;10.850;2023-04-01T06:00:44;21.00;48.40
44863;DHT22;30597;49.628;10.850;2023-04-01T06:03:09;21.00;48.30
44863;DHT22;30597;49.628;10.850;2023-04-01T06:05:39;21.10;48.30
44863;DHT22;30597;49.628;10.850;2023-04-01T06:08:17;21.20;48.70
44863;DHT22;30597;49.628;10.850;2023-04-01T06:13:49;21.40;48.60
44863;DHT22;30597;49.628;10.850;2023-04-01T06:21:45;21.60;48.20
44863;DHT22;30597;49.628;10.850;2023-04-01T06:27:39;21.80;48.00
44863;DHT22;30597;49.628;10.850;2023-04-01T06:30:43;21.80;47.80
44863;DHT22;30597;49.628;10.850;2023-04-01T06:36:25;22.00;47.70
44863;DHT22;30597;49.628;10.850;2023-04-01T06:39:18;22.00;47.60
44863;DHT22;30597;49.628;10.850;2023-04-01T06:47:49;22.00;47.60
44863;DHT22;30597;49.628;10.850;2023-04-01T06:50:28;22.10;47.70
44863;DHT22;30597;49.628;10.850;2023-04-01T06:56:03;22.10;47.70
44863;DHT22;30597;49.628;10.850;2023-04-01T07:01:08;22.10;46.90
44863;DHT22;30597;49.628;10.850;2023-04-01T07:03:57;22.00;46.60
44863;DHT22;30597;49.628;10.850;2023-04-01T07:06:35;22.00;46.50
44863;DHT22;30597;49.628;10.850;2023-04-01T07:09:05;22.00;46.50
44863;DHT22;30597;49.628;10.850;2023-04-01T07:11:35;22.00;46.30
44863;DHT22;30597;49.628;10.850;2023-04-01T07:14:26;22.10;46.30
44863;DHT22;30597;49.628;10.850;2023-04-01T07:17:14;22.00;46.10
44863;DHT22;30597;49.628;10.850;2023-04-01T07:22:39;22.00;46.00
44863;DHT22;30597;49.628;10.850;2023-04-01T07:25:16;22.00;45.90
44863;DHT22;30597;49.628;10.850;2023-04-01T07:27:43;22.10;45.90
44863;DHT22;30597;49.628;10.850;2023-04-01T07:30:16;22.00;45.70
44863;DHT22;30597;49.628;10.850;2023-04-01T07:33:01;22.00;45.60
44863;DHT22;30597;49.628;10.850;2023-04-01T07:35:46;22.10;45.50
44863;DHT22;30597;49.628;10.850;2023-04-01T07:44:13;22.10;45.30
44863;DHT22;30597;49.628;10.850;2023-04-01T07:46:42;22.10;45.30
44863;DHT22;30597;49.628;10.850;2023-04-01T07:49:25;22.10;45.30
44863;DHT22;30597;49.628;10.850;2023-04-01T07:52:17;22.10;45.20
44863;DHT22;30597;49.628;10.850;2023-04-01T07:57:41;22.10;45.10
44863;DHT22;30597;49.628;10.850;2023-04-01T08:03:17;22.10;45.10
44863;DHT22;30597;49.628;10.850;2023-04-01T08:11:41;22.10;44.90
44863;DHT22;30597;49.628;10.850;2023-04-01T08:14:23;22.10;44.80
44863;DHT22;30597;49.628;10.850;2023-04-01T08:22:29;22.10;44.60
44863;DHT22;30597;49.628;10.850;2023-04-01T08:25:00;22.10;44.50
44863;DHT22;30597;49.628;10.850;2023-04-01T08:32:57;22.10;44.40
44863;DHT22;30597;49.628;10.850;2023-04-01T08:35:34;22.10;44.30
44863;DHT22;30597;49.628;10.850;2023-04-01T08:38:09;22.10;44.20
44863;DHT22;30597;49.628;10.850;2023-04-01T08:40:55;22.10;44.10
44863;DHT22;30597;49.628;10.850;2023-04-01T08:52:14;22.10;44.00
44863;DHT22;30597;49.628;10.850;2023-04-01T08:54:46;22.10;44.00
44863;DHT22;30597;49.628;10.850;2023-04-01T09:11:03;22.20;43.60
44863;DHT22;30597;49.628;10.850;2023-04-01T09:16:34;22.10;43.50
44863;DHT22;30597;49.628;10.850;2023-04-01T09:22:10;22.10;43.60
44863;DHT22;30597;49.628;10.850;2023-04-01T09:35:50;21.90;43.60
44863;DHT22;30597;49.628;10.850;2023-04-01T09:44:34;21.80;43.60
44863;DHT22;30597;49.628;10.850;2023-04-01T09:50:10;21.80;43.70
44863;DHT22;30597;49.628;10.850;2023-04-01T09:58:50;21.70;43.60
44863;DHT22;30597;49.628;10.850;2023-04-01T10:07:36;21.50;43.80
44863;DHT22;30597;49.628;10.850;2023-04-01T10:22:00;21.40;44.20
44863;DHT22;30597;49.628;10.850;2023-04-01T10:39:05;21.30;44.20
44863;DHT22;30597;49.628;10.850;2023-04-01T10:59:02;21.80;44.20
44863;DHT22;30597;49.628;10.850;2023-04-01T11:04:47;22.00;44.50
44863;DHT22;30597;49.628;10.850;2023-04-01T11:10:37;22.10;44.50
44863;DHT22;30597;49.628;10.850;2023-04-01T11:16:27;22.20;44.20
44863;DHT22;30597;49.628;10.850;2023-04-01T11:19:15;22.30;44.30
44863;DHT22;30597;49.628;10.850;2023-04-01T11:24:36;22.20;44.80
44863;DHT22;30597;49.628;10.850;2023-04-01T11:33:22;22.10;44.00
44863;DHT22;30597;49.628;10.850;2023-04-01T11:38:53;22.00;44.00
44863;DHT22;30597;49.628;10.850;2023-04-01T11:41:49;22.00;44.10
44863;DHT22;30597;49.628;10.850;2023-04-01T11:44:20;21.90;44.10
44863;DHT22;30597;49.628;10.850;2023-04-01T11:47:27;21.80;44.10
44863;DHT22;30597;49.628;10.850;2023-04-01T12:03:41;21.60;44.20
44863;DHT22;30597;49.628;10.850;2023-04-01T12:11:42;21.50;44.60
44863;DHT22;30597;49.628;10.850;2023-04-01T12:19:54;21.30;44.70
44863;DHT22;30597;49.628;10.850;2023-04-01T12:22:36;21.30;44.70
44863;DHT22;30597;49.628;10.850;2023-04-01T12:28:39;21.20;44.70
44863;DHT22;30597;49.628;10.850;2023-04-01T12:30:57;21.30;44.80
44863;DHT22;30597;49.628;10.850;2023-04-01T12:56:02;21.50;44.30
44863;DHT22;30597;49.628;10.850;2023-04-01T13:11:48;21.90;43.60
44863;DHT22;30597;49.628;10.850;2023-04-01T13:14:41;22.00;43.70
44863;DHT22;30597;49.628;10.850;2023-04-01T13:17:31;22.00;44.30
44863;DHT22;30597;49.628;10.850;2023-04-01T13:20:16;22.00;43.60
44863;DHT22;30597;49.628;10.850;2023-04-01T13:23:09;22.00;43.60
44863;DHT22;30597;49.628;10.850;2023-04-01T13:25:51;22.00;43.60
44863;DHT22;30597;49.628;10.850;2023-04-01T13:28:29;21.90;43.50
44863;DHT22;30597;49.628;10.850;2023-04-01T13:36:56;21.80;43.70
44863;DHT22;30597;49.628;10.850;2023-04-01T13:39:48;21.80;43.70
44863;DHT22;30597;49.628;10.850;2023-04-01T13:42:28;21.70;43.70
44863;DHT22;30597;49.628;10.850;2023-04-01T13:45:17;21.70;43.80
44863;DHT22;30597;49.628;10.850;2023-04-01T13:48:18;21.60;43.80
44863;DHT22;30597;49.628;10.850;2023-04-01T13:51:09;21.60;43.90
44863;DHT22;30597;49.628;10.850;2023-04-01T13:59:23;21.50;44.00
44863;DHT22;30597;49.628;10.850;2023-04-01T14:02:24;21.50;44.10
44863;DHT22;30597;49.628;10.850;2023-04-01T14:13:15;21.30;44.50
44863;DHT22;30597;49.628;10.850;2023-04-01T14:27:39;21.10;44.70
44863;DHT22;30597;49.628;10.850;2023-04-01T14:32:42;21.10;44.70
44863;DHT22;30597;49.628;10.850;2023-04-01T14:35:15;21.10;44.70
44863;DHT22;30597;49.628;10.850;2023-04-01T14:38:15;21.10;44.70
44863;DHT22;30597;49.628;10.850;2023-04-01T14:43:47;21.10;44.70
44863;DHT22;30597;49.628;10.850;2023-04-01T14:46:22;21.20;44.60
44863;DHT22;30597;49.628;10.850;2023-04-01T14:48:59;21.30;44.40
44863;DHT22;30597;49.628;10.850;2023-04-01T14:51:36;21.40;44.30
44863;DHT22;30597;49.628;10.850;2023-04-01T14:57:05;21.60;44.10
44863;DHT22;30597;49.628;10.850;2023-04-01T14:59:40;21.60;44.00
44863;DHT22;30597;49.628;10.850;2023-04-01T15:02:32;21.70;44.00
44863;DHT22;30597;49.628;10.850;2023-04-01T15:08:00;21.70;43.80
44863;DHT22;30597;49.628;10.850;2023-04-01T15:21:29;21.70;43.70
44863;DHT22;30597;49.628;10.850;2023-04-01T15:27:21;21.70;43.80
44863;DHT22;30597;49.628;10.850;2023-04-01T15:36:06;21.60;43.90
44863;DHT22;30597;49.628;10.850;2023-04-01T15:41:24;21.50;43.90
44863;DHT22;30597;49.628;10.850;2023-04-01T15:43:54;21.40;44.00
44863;DHT22;30597;49.628;10.850;2023-04-01T15:55:02;21.30;44.10
44863;DHT22;30597;49.628;10.850;2023-04-01T16:00:31;21.10;44.40
44863;DHT22;30597;49.628;10.850;2023-04-01T16:09:09;21.10;44.60
44863;DHT22;30597;49.628;10.850;2023-04-01T16:20:07;21.00;44.80
44863;DHT22;30597;49.628;10.850;2023-04-01T16:26:15;20.90;44.80
44863;DHT22;30597;49.628;10.850;2023-04-01T16:29:00;20.90;44.80
44863;DHT22;30597;49.628;10.850;2023-04-01T16:34:34;21.00;44.60
44863;DHT22;30597;49.628;10.850;2023-04-01T16:37:09;21.10;44.50
44863;DHT22;30597;49.628;10.850;2023-04-01T16:42:34;21.20;44.30
44863;DHT22;30597;49.628;10.850;2023-04-01T16:47:36;21.40;44.20
44863;DHT22;30597;49.628;10.850;2023-04-01T16:50:27;21.40;44.20
44863;DHT22;30597;49.628;10.850;2023-04-01T16:53:16;21.40;44.20
44863;DHT22;30597;49.628;10.850;2023-04-01T16:55:52;21.40;44.20
44863;DHT22;30597;49.628;10.850;2023-04-01T16:58:26;21.40;44.10
44863;DHT22;30597;49.628;10.850;2023-04-01T17:01:14;21.40;44.10
44863;DHT22;30597;49.628;10.850;2023-04-01T17:03:46;21.50;44.20
44863;DHT22;30597;49.628;10.850;2023-04-01T17:09:18;21.50;44.80
44863;DHT22;30597;49.628;10.850;2023-04-01T17:12:18;21.50;44.10
44863;DHT22;30597;49.628;10.850;2023-04-01T17:20:43;21.50;44.20
44863;DHT22;30597;49.628;10.850;2023-04-01T17:26:10;21.40;44.20
44863;DHT22;30597;49.628;10.850;2023-04-01T17:28:43;21.40;44.20
44863;DHT22;30597;49.628;10.850;2023-04-01T17:31:32;21.40;44.20
44863;DHT22;30597;49.628;10.850;2023-04-01T17:34:30;21.30;44.30
44863;DHT22;30597;49.628;10.850;2023-04-01T17:42:59;21.20;44.50
44863;DHT22;30597;49.628;10.850;2023-04-01T17:45:42;21.10;44.50
44863;DHT22;30597;49.628;10.850;2023-04-01T17:48:16;21.10;44.70
44863;DHT22;30597;49.628;10.850;2023-04-01T17:50:51;21.00;44.70
44863;DHT22;30597;49.628;10.850;2023-04-01T17:58:58;21.00;44.90
44863;DHT22;30597;49.628;10.850;2023-04-01T18:01:45;20.90;44.90
44863;DHT22;30597;49.628;10.850;2023-04-01T18:04:37;20.90;45.00
44863;DHT22;30597;49.628;10.850;2023-04-01T18:07:28;20.90;45.10
44863;DHT22;30597;49.628;10.850;2023-04-01T18:10:17;20.90;45.10
44863;DHT22;30597;49.628;10.850;2023-04-01T18:13:27;20.80;45.10
44863;DHT22;30597;49.628;10.850;2023-04-01T18:19:09;21.10;45.70
44863;DHT22;30597;49.628;10.850;2023-04-01T18:21:52;21.10;45.90
44863;DHT22;30597;49.628;10.850;2023-04-01T18:24:33;21.20;45.70
44863;DHT22;30597;49.628;10.850;2023-04-01T18:27:18;21.30;45.80
44863;DHT22;30597;49.628;10.850;2023-04-01T18:29:53;21.40;45.80
44863;DHT22;30597;49.628;10.850;2023-04-01T18:34:59;21.50;46.00
44863;DHT22;30597;49.628;10.850;2023-04-01T18:37:31;21.50;45.60
44863;DHT22;30597;49.628;10.850;2023-04-01T18:40:10;21.60;45.70
44863;DHT22;30597;49.628;10.850;2023-04-01T18:43:05;21.60;45.70
44863;DHT22;30597;49.628;10.850;2023-04-01T18:45:37;21.60;45.70
44863;DHT22;30597;49.628;10.850;2023-04-01T18:48:40;21.70;45.80
44863;DHT22;30597;49.628;10.850;2023-04-01T18:51:17;21.70;45.80
44863;DHT22;30597;49.628;10.850;2023-04-01T18:54:30;21.70;45.90
44863;DHT22;30597;49.628;10.850;2023-04-01T18:57:04;21.70;45.90
44863;DHT22;30597;49.628;10.850;2023-04-01T18:59:34;21.70;46.10
44863;DHT22;30597;49.628;10.850;2023-04-01T19:07:53;21.70;46.30
44863;DHT22;30597;49.628;10.850;2023-04-01T19:13:30;21.60;46.50
44863;DHT22;30597;49.628;10.850;2023-04-01T19:16:42;21.60;46.60
44863;DHT22;30597;49.628;10.850;2023-04-01T19:21:52;21.60;46.90
44863;DHT22;30597;49.628;10.850;2023-04-01T19:27:37;21.60;46.90
44863;DHT22;30597;49.628;10.850;2023-04-01T19:36:10;21.60;47.00
44863;DHT22;30597;49.628;10.850;2023-04-01T19:38:49;21.60;47.00
44863;DHT22;30597;49.628;10.850;2023-04-01T19:47:02;21.70;47.10
44863;DHT22;30597;49.628;10.850;2023-04-01T19:54:48;21.60;47.20
44863;DHT22;30597;49.628;10.850;2023-04-01T20:00:14;21.60;47.20
44863;DHT22;30597;49.628;10.850;2023-04-01T20:05:45;21.70;47.40
44863;DHT22;30597;49.628;10.850;2023-04-01T20:10:55;21.60;47.50
44863;DHT22;30597;49.628;10.850;2023-04-01T20:13:34;21.60;47.50
44863;DHT22;30597;49.628;10.850;2023-04-01T20:16:06;21.60;47.50
44863;DHT22;30597;49.628;10.850;2023-04-01T20:18:49;21.50;47.70
44863;DHT22;30597;49.628;10.850;2023-04-01T20:21:45;21.50;48.20
44863;DHT22;30597;49.628;10.850;2023-04-01T20:24:20;21.50;48.20
44863;DHT22;30597;49.628;10.850;2023-04-01T20:26:59;21.50;48.30
44863;DHT22;30597;49.628;10.850;2023-04-01T20:32:40;21.50;48.40
44863;DHT22;30597;49.628;10.850;2023-04-01T20:35:23;21.50;48.40
44863;DHT22;30597;49.628;10.850;2023-04-01T20:40:52;21.40;48.10
44863;DHT22;30597;49.628;10.850;2023-04-01T20:46:23;21.30;48.20
44863;DHT22;30597;49.628;10.850;2023-04-01T20:49:33;21.30;48.20
44863;DHT22;30597;49.628;10.850;2023-04-01T20:57:24;21.50;48.30
44863;DHT22;30597;49.628;10.850;2023-04-01T21:00:37;21.50;48.30
44863;DHT22;30597;49.628;10.850;2023-04-01T21:14:27;21.50;48.20
44863;DHT22;30597;49.628;10.850;2023-04-01T21:17:33;21.50;48.20
44863;DHT22;30597;49.628;10.850;2023-04-01T21:32:06;21.40;48.30
44863;DHT22;30597;49.628;10.850;2023-04-01T21:37:12;21.40;48.20
44863;DHT22;30597;49.628;10.850;2023-04-01T21:40:09;21.50;48.40
44863;DHT22;30597;49.628;10.850;2023-04-01T21:51:33;21.40;48.30
44863;DHT22;30597;49.628;10.850;2023-04-01T22:02:58;21.20;48.50
44863;DHT22;30597;49.628;10.850;2023-04-01T22:05:37;21.20;48.50
44863;DHT22;30597;49.628;10.850;2023-04-01T22:19:53;21.00;48.30
44863;DHT22;30597;49.628;10.850;2023-04-01T22:28:07;21.10;48.80
44863;DHT22;30597;49.628;10.850;2023-04-01T22:36:10;21.00;49.10
44863;DHT22;30597;49.628;10.850;2023-04-01T22:41:47;21.00;49.40
44863;DHT22;30597;49.628;10.850;2023-04-01T22:49:49;21.00;49.60
44863;DHT22;30597;49.628;10.850;2023-04-01T22:52:28;20.90;49.60
44863;DHT22;30597;49.628;10.850;2023-04-01T22:55:03;20.90;49.60
44863;DHT22;30597;49.628;10.850;2023-04-01T23:02:41;20.90;49.60
44863;DHT22;30597;49.628;10.850;2023-04-01T23:05:12;20.90;50.30
44863;DHT22;30597;49.628;10.850;2023-04-01T23:07:56;21.00;49.80
44863;DHT22;30597;49.628;10.850;2023-04-01T23:10:44;20.90;49.80
44863;DHT22;30597;49.628;10.850;2023-04-01T23:13:22;20.90;49.80
44863;DHT22;30597;49.628;10.850;2023-04-01T23:15:52;21.00;49.80
44863;DHT22;30597;49.628;10.850;2023-04-01T23:18:29;20.90;49.80
44863;DHT22;30597;49.628;10.850;2023-04-01T23:28:55;20.90;50.00
44863;DHT22;30597;49.628;10.850;2023-04-01T23:31:26;20.90;50.00
44863;DHT22;30597;49.628;10.850;2023-04-01T23:36:29;21.00;50.10
44863;DHT22;30597;49.628;10.850;2023-04-01T23:38:56;20.90;50.10
44863;DHT22;30597;49.628;10.850;2023-04-01T23:41:27;20.90;50.20
44863;DHT22;30597;49.628;10.850;2023-04-01T23:44:07;20.90;50.10
44863;DHT22;30597;49.628;10.850;2023-04-01T23:46:35;21.00;50.10
44863;DHT22;30597;49.628;10.850;2023-04-01T23:49:02;21.00;50.30
44863;DHT22;30597;49.628;10.850;2023-04-01T23:51:37;20.90;50.10
44863;DHT22;30597;49.628;10.850;2023-04-01T23:54:14;21.00;50.70
44863;DHT22;30597;49.628;10.850;2023-04-01T23:56:45;20.90;49.90
44863;DHT22;30597;49.628;10.850;2023-04-01T23:59:22;20.90;50.00
